sensor_id;sensor_type;location;lat;lon;timestamp;P1;durP1;ratioP1;P2;durP2;ratioP2
79220;SDS011;68648;52.114;5.424;2023-05-14T00:01:14;18.75;;;8.77;;
79220;SDS011;68648;52.114;5.424;2023-05-14T00:03:41;17.83;;;8.98;;
79220;SDS011;68648;52.114;5.424;2023-05-14T00:06:07;15.95;;;8.60;;
79220;SDS011;68648;52.114;5.424;2023-05-14T00:08:36;18.70;;;8.82;;
79220;SDS011;68648;52.114;5.424;2023-05-14T00:11:02;21.75;;;8.93;;
79220;SDS011;68648;52.114;5.424;2023-05-14T00:13:34;20.63;;;9.02;;
79220;SDS011;68648;52.114;5.424;2023-05-14T00:16:02;19.30;;;8.75;;
79220;SDS011;68648;52.114;5.424;2023-05-14T00:18:29;20.50;;;8.80;;
79220;SDS011;68648;52.114;5.424;2023-05-14T00:20:56;16.05;;;8.35;;
79220;SDS011;68648;52.114;5.424;2023-05-14T00:23:25;20.48;;;9.23;;
79220;SDS011;68648;52.114;5.424;2023-05-14T00:25:51;14.98;;;8.45;;
79220;SDS011;68648;52.114;5.424;2023-05-14T00:28:18;18.50;;;9.27;;
79220;SDS011;68648;52.114;5.424;2023-05-14T00:30:45;16.88;;;9.10;;
79220;SDS011;68648;52.114;5.424;2023-05-14T00:33:15;19.65;;;8.07;;
79220;SDS011;68648;52.114;5.424;2023-05-14T00:35:42;23.42;;;8.77;;
79220;SDS011;68648;52.114;5.424;2023-05-14T00:38:08;16.38;;;8.05;;
79220;SDS011;68648;52.114;5.424;2023-05-14T00:40:36;18.83;;;8.73;;
79220;SDS011;68648;52.114;5.424;2023-05-14T00:43:03;16.58;;;7.90;;
79220;SDS011;68648;52.114;5.424;2023-05-14T00:45:29;18.65;;;8.52;;
79220;SDS011;68648;52.114;5.424;2023-05-14T00:47:56;19.38;;;9.18;;
79220;SDS011;68648;52.114;5.424;2023-05-14T00:50:23;16.60;;;8.90;;
79220;SDS011;68648;52.114;5.424;2023-05-14T00:52:50;22.30;;;9.35;;
79220;SDS011;68648;52.114;5.424;2023-05-14T00:55:17;18.58;;;9.00;;
79220;SDS011;68648;52.114;5.424;2023-05-14T00:57:44;17.95;;;8.77;;
79220;SDS011;68648;52.114;5.424;2023-05-14T01:00:11;16.52;;;7.82;;
79220;SDS011;68648;52.114;5.424;2023-05-14T01:02:38;17.65;;;8.15;;
79220;SDS011;68648;52.114;5.424;2023-05-14T01:05:05;21.92;;;9.23;;
79220;SDS011;68648;52.114;5.424;2023-05-14T01:07:38;19.15;;;8.45;;
79220;SDS011;68648;52.114;5.424;2023-05-14T01:10:07;18.85;;;8.18;;
79220;SDS011;68648;52.114;5.424;2023-05-14T01:12:46;22.02;;;8.55;;
79220;SDS011;68648;52.114;5.424;2023-05-14T01:15:32;18.63;;;8.25;;
79220;SDS011;68648;52.114;5.424;2023-05-14T01:18:07;17.73;;;8.10;;
79220;SDS011;68648;52.114;5.424;2023-05-14T01:20:38;22.20;;;8.32;;
79220;SDS011;68648;52.114;5.424;2023-05-14T01:23:07;16.48;;;7.60;;
79220;SDS011;68648;52.114;5.424;2023-05-14T01:25:37;20.20;;;8.27;;
79220;SDS011;68648;52.114;5.424;2023-05-14T01:30:49;16.52;;;7.85;;
79220;SDS011;68648;52.114;5.424;2023-05-14T01:33:23;16.67;;;7.72;;
79220;SDS011;68648;52.114;5.424;2023-05-14T01:35:55;18.48;;;7.85;;
79220;SDS011;68648;52.114;5.424;2023-05-14T01:38:23;16.70;;;7.75;;
79220;SDS011;68648;52.114;5.424;2023-05-14T01:40:53;16.75;;;8.23;;
79220;SDS011;68648;52.114;5.424;2023-05-14T01:43:21;17.58;;;8.48;;
79220;SDS011;68648;52.114;5.424;2023-05-14T01:45:49;20.02;;;8.73;;
79220;SDS011;68648;52.114;5.424;2023-05-14T01:48:15;20.02;;;8.35;;
79220;SDS011;68648;52.114;5.424;2023-05-14T01:50:42;23.95;;;8.10;;
79220;SDS011;68648;52.114;5.424;2023-05-14T01:53:09;18.95;;;7.65;;
79220;SDS011;68648;52.114;5.424;2023-05-14T01:55:35;16.48;;;8.32;;
79220;SDS011;68648;52.114;5.424;2023-05-14T01:58:02;19.75;;;7.90;;
79220;SDS011;68648;52.114;5.424;2023-05-14T02:00:35;17.25;;;8.25;;
79220;SDS011;68648;52.114;5.424;2023-05-14T02:03:01;17.45;;;8.43;;
79220;SDS011;68648;52.114;5.424;2023-05-14T02:05:28;16.10;;;7.90;;
79220;SDS011;68648;52.114;5.424;2023-05-14T02:07:55;19.63;;;7.47;;
79220;SDS011;68648;52.114;5.424;2023-05-14T02:10:21;17.65;;;8.35;;
79220;SDS011;68648;52.114;5.424;2023-05-14T02:12:48;18.75;;;7.95;;
79220;SDS011;68648;52.114;5.424;2023-05-14T02:15:15;18.95;;;8.60;;
79220;SDS011;68648;52.114;5.424;2023-05-14T02:17:42;18.40;;;8.23;;
79220;SDS011;68648;52.114;5.424;2023-05-14T02:20:09;17.98;;;7.47;;
79220;SDS011;68648;52.114;5.424;2023-05-14T02:22:36;15.38;;;7.80;;
79220;SDS011;68648;52.114;5.424;2023-05-14T02:25:05;20.23;;;8.05;;
79220;SDS011;68648;52.114;5.424;2023-05-14T02:27:32;20.15;;;7.95;;
79220;SDS011;68648;52.114;5.424;2023-05-14T02:30:00;17.92;;;8.23;;
79220;SDS011;68648;52.114;5.424;2023-05-14T02:32:27;18.95;;;8.45;;
79220;SDS011;68648;52.114;5.424;2023-05-14T02:34:54;19.15;;;8.43;;
79220;SDS011;68648;52.114;5.424;2023-05-14T02:37:20;17.88;;;8.00;;
79220;SDS011;68648;52.114;5.424;2023-05-14T02:39:47;20.13;;;8.85;;
79220;SDS011;68648;52.114;5.424;2023-05-14T02:42:14;16.95;;;8.38;;
79220;SDS011;68648;52.114;5.424;2023-05-14T02:44:41;22.48;;;8.07;;
79220;SDS011;68648;52.114;5.424;2023-05-14T02:47:09;18.98;;;8.45;;
79220;SDS011;68648;52.114;5.424;2023-05-14T02:49:36;17.20;;;7.70;;
79220;SDS011;68648;52.114;5.424;2023-05-14T02:52:02;17.42;;;8.07;;
79220;SDS011;68648;52.114;5.424;2023-05-14T02:54:29;17.33;;;8.45;;
79220;SDS011;68648;52.114;5.424;2023-05-14T02:56:55;18.52;;;8.50;;
79220;SDS011;68648;52.114;5.424;2023-05-14T02:59:23;17.65;;;8.68;;
79220;SDS011;68648;52.114;5.424;2023-05-14T03:01:50;22.67;;;8.10;;
79220;SDS011;68648;52.114;5.424;2023-05-14T03:04:17;20.23;;;8.70;;
79220;SDS011;68648;52.114;5.424;2023-05-14T03:06:44;21.60;;;8.05;;
79220;SDS011;68648;52.114;5.424;2023-05-14T03:09:10;20.73;;;8.50;;
79220;SDS011;68648;52.114;5.424;2023-05-14T03:11:37;20.75;;;8.45;;
79220;SDS011;68648;52.114;5.424;2023-05-14T03:14:04;19.10;;;8.13;;
79220;SDS011;68648;52.114;5.424;2023-05-14T03:16:31;20.73;;;7.95;;
79220;SDS011;68648;52.114;5.424;2023-05-14T03:18:57;18.27;;;8.68;;
79220;SDS011;68648;52.114;5.424;2023-05-14T03:21:24;18.75;;;7.97;;
79220;SDS011;68648;52.114;5.424;2023-05-14T03:23:51;19.33;;;7.97;;
79220;SDS011;68648;52.114;5.424;2023-05-14T03:26:18;15.60;;;7.68;;
79220;SDS011;68648;52.114;5.424;2023-05-14T03:28:47;18.77;;;8.43;;
79220;SDS011;68648;52.114;5.424;2023-05-14T03:31:13;19.65;;;7.82;;
79220;SDS011;68648;52.114;5.424;2023-05-14T03:33:41;19.83;;;8.32;;
79220;SDS011;68648;52.114;5.424;2023-05-14T03:36:09;21.10;;;8.00;;
79220;SDS011;68648;52.114;5.424;2023-05-14T03:38:35;20.33;;;8.75;;
79220;SDS011;68648;52.114;5.424;2023-05-14T03:41:02;16.98;;;8.63;;
79220;SDS011;68648;52.114;5.424;2023-05-14T03:43:29;22.73;;;8.18;;
79220;SDS011;68648;52.114;5.424;2023-05-14T03:45:55;18.52;;;8.10;;
79220;SDS011;68648;52.114;5.424;2023-05-14T03:48:22;20.65;;;8.77;;
79220;SDS011;68648;52.114;5.424;2023-05-14T03:50:49;18.58;;;8.00;;
79220;SDS011;68648;52.114;5.424;2023-05-14T03:53:16;20.13;;;8.68;;
79220;SDS011;68648;52.114;5.424;2023-05-14T03:55:43;19.98;;;8.55;;
79220;SDS011;68648;52.114;5.424;2023-05-14T03:58:09;20.52;;;7.25;;
79220;SDS011;68648;52.114;5.424;2023-05-14T04:00:40;19.65;;;8.27;;
79220;SDS011;68648;52.114;5.424;2023-05-14T04:03:07;18.73;;;7.75;;
79220;SDS011;68648;52.114;5.424;2023-05-14T04:05:34;17.60;;;7.90;;
79220;SDS011;68648;52.114;5.424;2023-05-14T04:08:01;19.02;;;7.78;;
79220;SDS011;68648;52.114;5.424;2023-05-14T04:10:28;18.95;;;8.10;;
79220;SDS011;68648;52.114;5.424;2023-05-14T04:12:55;17.33;;;7.43;;
79220;SDS011;68648;52.114;5.424;2023-05-14T04:15:22;20.33;;;8.25;;
79220;SDS011;68648;52.114;5.424;2023-05-14T04:17:49;17.67;;;6.68;;
79220;SDS011;68648;52.114;5.424;2023-05-14T04:20:16;17.23;;;7.90;;
79220;SDS011;68648;52.114;5.424;2023-05-14T04:22:42;15.45;;;7.15;;
79220;SDS011;68648;52.114;5.424;2023-05-14T04:25:09;20.15;;;7.82;;
79220;SDS011;68648;52.114;5.424;2023-05-14T04:27:36;17.92;;;7.15;;
79220;SDS011;68648;52.114;5.424;2023-05-14T04:30:03;20.70;;;8.10;;
79220;SDS011;68648;52.114;5.424;2023-05-14T04:32:30;19.83;;;7.65;;
79220;SDS011;68648;52.114;5.424;2023-05-14T04:34:56;21.83;;;6.95;;
79220;SDS011;68648;52.114;5.424;2023-05-14T04:37:23;18.73;;;6.60;;
79220;SDS011;68648;52.114;5.424;2023-05-14T04:39:49;18.88;;;7.32;;
79220;SDS011;68648;52.114;5.424;2023-05-14T04:42:16;16.25;;;7.20;;
79220;SDS011;68648;52.114;5.424;2023-05-14T04:44:47;15.23;;;7.43;;
79220;SDS011;68648;52.114;5.424;2023-05-14T04:47:17;18.58;;;7.22;;
79220;SDS011;68648;52.114;5.424;2023-05-14T04:49:43;17.02;;;7.60;;
79220;SDS011;68648;52.114;5.424;2023-05-14T04:52:10;16.65;;;7.07;;
79220;SDS011;68648;52.114;5.424;2023-05-14T04:54:37;20.15;;;8.07;;
79220;SDS011;68648;52.114;5.424;2023-05-14T04:57:03;18.00;;;7.00;;
79220;SDS011;68648;52.114;5.424;2023-05-14T04:59:32;15.07;;;6.30;;
79220;SDS011;68648;52.114;5.424;2023-05-14T05:02:02;14.00;;;6.57;;
79220;SDS011;68648;52.114;5.424;2023-05-14T05:04:28;14.15;;;6.40;;
79220;SDS011;68648;52.114;5.424;2023-05-14T05:06:55;15.18;;;7.13;;
79220;SDS011;68648;52.114;5.424;2023-05-14T05:09:22;16.88;;;6.80;;
79220;SDS011;68648;52.114;5.424;2023-05-14T05:11:48;16.50;;;7.40;;
79220;SDS011;68648;52.114;5.424;2023-05-14T05:14:15;16.02;;;6.25;;
79220;SDS011;68648;52.114;5.424;2023-05-14T05:16:42;17.75;;;6.22;;
79220;SDS011;68648;52.114;5.424;2023-05-14T05:19:08;19.63;;;5.93;;
79220;SDS011;68648;52.114;5.424;2023-05-14T05:21:35;16.05;;;6.97;;
79220;SDS011;68648;52.114;5.424;2023-05-14T05:24:04;14.05;;;5.80;;
79220;SDS011;68648;52.114;5.424;2023-05-14T05:26:31;12.63;;;5.90;;
79220;SDS011;68648;52.114;5.424;2023-05-14T05:28:57;16.33;;;6.68;;
79220;SDS011;68648;52.114;5.424;2023-05-14T05:31:24;13.30;;;6.35;;
79220;SDS011;68648;52.114;5.424;2023-05-14T05:33:51;14.82;;;6.05;;
79220;SDS011;68648;52.114;5.424;2023-05-14T05:36:17;14.82;;;6.35;;
79220;SDS011;68648;52.114;5.424;2023-05-14T05:38:44;13.40;;;6.25;;
79220;SDS011;68648;52.114;5.424;2023-05-14T05:41:10;14.38;;;6.53;;
79220;SDS011;68648;52.114;5.424;2023-05-14T05:43:37;13.23;;;5.97;;
79220;SDS011;68648;52.114;5.424;2023-05-14T05:46:03;15.88;;;6.05;;
79220;SDS011;68648;52.114;5.424;2023-05-14T05:48:30;15.27;;;6.47;;
79220;SDS011;68648;52.114;5.424;2023-05-14T05:50:56;15.68;;;6.72;;
79220;SDS011;68648;52.114;5.424;2023-05-14T05:53:23;16.10;;;6.28;;
79220;SDS011;68648;52.114;5.424;2023-05-14T05:55:50;16.38;;;6.07;;
79220;SDS011;68648;52.114;5.424;2023-05-14T05:58:19;14.98;;;6.35;;
79220;SDS011;68648;52.114;5.424;2023-05-14T06:00:46;15.23;;;5.82;;
79220;SDS011;68648;52.114;5.424;2023-05-14T06:03:12;13.77;;;6.82;;
79220;SDS011;68648;52.114;5.424;2023-05-14T06:05:39;13.82;;;5.80;;
79220;SDS011;68648;52.114;5.424;2023-05-14T06:08:06;12.98;;;5.57;;
79220;SDS011;68648;52.114;5.424;2023-05-14T06:10:32;13.13;;;6.00;;
79220;SDS011;68648;52.114;5.424;2023-05-14T06:13:00;18.65;;;5.63;;
79220;SDS011;68648;52.114;5.424;2023-05-14T06:15:26;15.70;;;6.18;;
79220;SDS011;68648;52.114;5.424;2023-05-14T06:18:02;14.13;;;6.13;;
79220;SDS011;68648;52.114;5.424;2023-05-14T06:20:29;17.25;;;6.28;;
79220;SDS011;68648;52.114;5.424;2023-05-14T06:22:55;13.77;;;6.30;;
79220;SDS011;68648;52.114;5.424;2023-05-14T06:25:22;12.98;;;5.82;;
79220;SDS011;68648;52.114;5.424;2023-05-14T06:27:48;13.57;;;5.75;;
79220;SDS011;68648;52.114;5.424;2023-05-14T06:30:15;12.75;;;5.85;;
79220;SDS011;68648;52.114;5.424;2023-05-14T06:32:41;13.32;;;5.30;;
79220;SDS011;68648;52.114;5.424;2023-05-14T06:35:08;14.52;;;5.75;;
79220;SDS011;68648;52.114;5.424;2023-05-14T06:37:38;11.65;;;4.95;;
79220;SDS011;68648;52.114;5.424;2023-05-14T06:40:05;16.23;;;6.00;;
79220;SDS011;68648;52.114;5.424;2023-05-14T06:42:34;11.57;;;5.40;;
79220;SDS011;68648;52.114;5.424;2023-05-14T06:45:00;14.20;;;6.25;;
79220;SDS011;68648;52.114;5.424;2023-05-14T06:47:30;14.10;;;5.72;;
79220;SDS011;68648;52.114;5.424;2023-05-14T06:49:57;13.73;;;5.72;;
79220;SDS011;68648;52.114;5.424;2023-05-14T06:52:23;13.23;;;5.72;;
79220;SDS011;68648;52.114;5.424;2023-05-14T06:54:50;13.02;;;6.03;;
79220;SDS011;68648;52.114;5.424;2023-05-14T06:57:17;14.82;;;6.63;;
79220;SDS011;68648;52.114;5.424;2023-05-14T06:59:43;11.85;;;5.63;;
79220;SDS011;68648;52.114;5.424;2023-05-14T07:02:10;11.98;;;5.97;;
79220;SDS011;68648;52.114;5.424;2023-05-14T07:04:37;15.07;;;5.88;;
79220;SDS011;68648;52.114;5.424;2023-05-14T07:07:04;11.88;;;5.95;;
79220;SDS011;68648;52.114;5.424;2023-05-14T07:09:31;13.40;;;5.95;;
79220;SDS011;68648;52.114;5.424;2023-05-14T07:11:57;13.82;;;5.95;;
79220;SDS011;68648;52.114;5.424;2023-05-14T07:14:25;15.88;;;6.53;;
79220;SDS011;68648;52.114;5.424;2023-05-14T07:16:51;14.07;;;6.35;;
79220;SDS011;68648;52.114;5.424;2023-05-14T07:19:18;12.65;;;5.97;;
79220;SDS011;68648;52.114;5.424;2023-05-14T07:21:44;13.77;;;6.75;;
79220;SDS011;68648;52.114;5.424;2023-05-14T07:24:11;11.18;;;5.82;;
79220;SDS011;68648;52.114;5.424;2023-05-14T07:26:37;12.45;;;5.85;;
79220;SDS011;68648;52.114;5.424;2023-05-14T07:29:05;11.77;;;5.10;;
79220;SDS011;68648;52.114;5.424;2023-05-14T07:31:31;15.95;;;6.60;;
79220;SDS011;68648;52.114;5.424;2023-05-14T07:33:58;13.30;;;6.18;;
79220;SDS011;68648;52.114;5.424;2023-05-14T07:36:25;14.20;;;5.82;;
79220;SDS011;68648;52.114;5.424;2023-05-14T07:38:54;13.80;;;6.13;;
79220;SDS011;68648;52.114;5.424;2023-05-14T07:41:21;14.70;;;5.82;;
79220;SDS011;68648;52.114;5.424;2023-05-14T07:43:48;13.82;;;5.80;;
79220;SDS011;68648;52.114;5.424;2023-05-14T07:46:14;12.43;;;6.13;;
79220;SDS011;68648;52.114;5.424;2023-05-14T07:48:41;11.85;;;6.53;;
79220;SDS011;68648;52.114;5.424;2023-05-14T07:51:08;14.52;;;6.43;;
79220;SDS011;68648;52.114;5.424;2023-05-14T07:53:34;12.73;;;6.72;;
79220;SDS011;68648;52.114;5.424;2023-05-14T07:56:01;12.52;;;6.95;;
79220;SDS011;68648;52.114;5.424;2023-05-14T07:58:27;15.10;;;6.05;;
79220;SDS011;68648;52.114;5.424;2023-05-14T08:00:55;12.48;;;6.47;;
79220;SDS011;68648;52.114;5.424;2023-05-14T08:03:22;15.25;;;6.50;;
79220;SDS011;68648;52.114;5.424;2023-05-14T08:05:49;12.93;;;6.22;;
79220;SDS011;68648;52.114;5.424;2023-05-14T08:08:17;14.00;;;7.15;;
79220;SDS011;68648;52.114;5.424;2023-05-14T08:10:47;16.67;;;6.53;;
79220;SDS011;68648;52.114;5.424;2023-05-14T08:13:16;14.40;;;6.78;;
79220;SDS011;68648;52.114;5.424;2023-05-14T08:15:43;12.73;;;6.53;;
79220;SDS011;68648;52.114;5.424;2023-05-14T08:18:09;14.10;;;7.03;;
79220;SDS011;68648;52.114;5.424;2023-05-14T08:20:36;14.20;;;6.63;;
79220;SDS011;68648;52.114;5.424;2023-05-14T08:23:02;13.68;;;7.03;;
79220;SDS011;68648;52.114;5.424;2023-05-14T08:25:29;15.25;;;6.95;;
79220;SDS011;68648;52.114;5.424;2023-05-14T08:27:56;10.95;;;6.50;;
79220;SDS011;68648;52.114;5.424;2023-05-14T08:30:24;14.23;;;6.30;;
79220;SDS011;68648;52.114;5.424;2023-05-14T08:32:52;13.90;;;6.30;;
79220;SDS011;68648;52.114;5.424;2023-05-14T08:35:19;13.18;;;7.10;;
79220;SDS011;68648;52.114;5.424;2023-05-14T08:37:45;12.38;;;6.80;;
79220;SDS011;68648;52.114;5.424;2023-05-14T08:40:12;14.75;;;5.97;;
79220;SDS011;68648;52.114;5.424;2023-05-14T08:42:38;17.55;;;6.38;;
79220;SDS011;68648;52.114;5.424;2023-05-14T08:45:20;15.90;;;7.40;;
79220;SDS011;68648;52.114;5.424;2023-05-14T08:47:50;12.93;;;7.35;;
79220;SDS011;68648;52.114;5.424;2023-05-14T08:50:21;15.38;;;6.82;;
79220;SDS011;68648;52.114;5.424;2023-05-14T08:52:49;12.73;;;6.35;;
79220;SDS011;68648;52.114;5.424;2023-05-14T08:55:16;11.88;;;6.18;;
79220;SDS011;68648;52.114;5.424;2023-05-14T08:57:44;13.10;;;6.28;;
79220;SDS011;68648;52.114;5.424;2023-05-14T09:00:11;12.95;;;5.85;;
79220;SDS011;68648;52.114;5.424;2023-05-14T09:02:41;12.82;;;6.25;;
79220;SDS011;68648;52.114;5.424;2023-05-14T09:05:09;15.23;;;5.72;;
79220;SDS011;68648;52.114;5.424;2023-05-14T09:07:37;11.82;;;5.88;;
79220;SDS011;68648;52.114;5.424;2023-05-14T09:10:04;14.43;;;5.88;;
79220;SDS011;68648;52.114;5.424;2023-05-14T09:12:31;12.88;;;6.13;;
79220;SDS011;68648;52.114;5.424;2023-05-14T09:14:57;10.30;;;5.47;;
79220;SDS011;68648;52.114;5.424;2023-05-14T09:17:25;13.73;;;5.88;;
79220;SDS011;68648;52.114;5.424;2023-05-14T09:19:53;12.60;;;5.80;;
79220;SDS011;68648;52.114;5.424;2023-05-14T09:22:19;11.15;;;5.85;;
79220;SDS011;68648;52.114;5.424;2023-05-14T09:25:00;10.27;;;5.55;;
79220;SDS011;68648;52.114;5.424;2023-05-14T09:27:33;10.48;;;5.35;;
79220;SDS011;68648;52.114;5.424;2023-05-14T09:30:04;12.70;;;5.70;;
79220;SDS011;68648;52.114;5.424;2023-05-14T09:32:35;10.18;;;5.22;;
79220;SDS011;68648;52.114;5.424;2023-05-14T09:35:13;11.27;;;5.68;;
79220;SDS011;68648;52.114;5.424;2023-05-14T09:37:44;10.73;;;5.03;;
79220;SDS011;68648;52.114;5.424;2023-05-14T09:40:13;11.15;;;5.28;;
79220;SDS011;68648;52.114;5.424;2023-05-14T09:42:40;14.93;;;5.75;;
79220;SDS011;68648;52.114;5.424;2023-05-14T09:45:07;14.73;;;5.13;;
79220;SDS011;68648;52.114;5.424;2023-05-14T09:47:35;11.32;;;5.40;;
79220;SDS011;68648;52.114;5.424;2023-05-14T09:50:04;13.27;;;6.13;;
79220;SDS011;68648;52.114;5.424;2023-05-14T09:52:31;12.50;;;5.43;;
79220;SDS011;68648;52.114;5.424;2023-05-14T09:54:58;13.52;;;5.38;;
79220;SDS011;68648;52.114;5.424;2023-05-14T09:57:25;16.77;;;5.50;;
79220;SDS011;68648;52.114;5.424;2023-05-14T09:59:52;13.02;;;6.07;;
79220;SDS011;68648;52.114;5.424;2023-05-14T10:02:26;12.57;;;5.82;;
79220;SDS011;68648;52.114;5.424;2023-05-14T10:05:03;12.75;;;4.88;;
79220;SDS011;68648;52.114;5.424;2023-05-14T10:07:43;15.20;;;5.40;;
79220;SDS011;68648;52.114;5.424;2023-05-14T10:10:15;9.38;;;5.05;;
79220;SDS011;68648;52.114;5.424;2023-05-14T10:12:52;13.63;;;5.15;;
79220;SDS011;68648;52.114;5.424;2023-05-14T10:15:24;9.95;;;5.00;;
79220;SDS011;68648;52.114;5.424;2023-05-14T10:18:28;11.20;;;4.85;;
79220;SDS011;68648;52.114;5.424;2023-05-14T10:21:02;9.05;;;4.55;;
79220;SDS011;68648;52.114;5.424;2023-05-14T10:23:30;12.55;;;4.93;;
79220;SDS011;68648;52.114;5.424;2023-05-14T10:25:57;12.30;;;5.57;;
79220;SDS011;68648;52.114;5.424;2023-05-14T10:28:24;9.48;;;4.97;;
79220;SDS011;68648;52.114;5.424;2023-05-14T10:30:51;12.32;;;5.68;;
79220;SDS011;68648;52.114;5.424;2023-05-14T10:33:19;11.25;;;5.28;;
79220;SDS011;68648;52.114;5.424;2023-05-14T10:36:05;12.45;;;5.47;;
79220;SDS011;68648;52.114;5.424;2023-05-14T10:38:33;9.85;;;4.65;;
79220;SDS011;68648;52.114;5.424;2023-05-14T10:41:02;12.27;;;4.97;;
79220;SDS011;68648;52.114;5.424;2023-05-14T10:43:35;9.73;;;4.88;;
79220;SDS011;68648;52.114;5.424;2023-05-14T10:46:03;10.05;;;4.82;;
79220;SDS011;68648;52.114;5.424;2023-05-14T10:48:31;13.15;;;5.00;;
79220;SDS011;68648;52.114;5.424;2023-05-14T10:50:58;9.82;;;4.78;;
79220;SDS011;68648;52.114;5.424;2023-05-14T10:53:30;13.05;;;4.70;;
79220;SDS011;68648;52.114;5.424;2023-05-14T10:56:08;12.57;;;4.72;;
79220;SDS011;68648;52.114;5.424;2023-05-14T10:58:37;9.15;;;4.53;;
79220;SDS011;68648;52.114;5.424;2023-05-14T11:01:05;9.80;;;5.20;;
79220;SDS011;68648;52.114;5.424;2023-05-14T11:06:08;8.35;;;5.10;;
79220;SDS011;68648;52.114;5.424;2023-05-14T11:08:36;11.95;;;4.63;;
79220;SDS011;68648;52.114;5.424;2023-05-14T11:11:04;8.93;;;4.60;;
79220;SDS011;68648;52.114;5.424;2023-05-14T11:13:33;10.98;;;4.60;;
79220;SDS011;68648;52.114;5.424;2023-05-14T11:16:00;9.13;;;4.03;;
79220;SDS011;68648;52.114;5.424;2023-05-14T11:18:47;9.27;;;4.03;;
79220;SDS011;68648;52.114;5.424;2023-05-14T11:21:18;9.98;;;4.53;;
79220;SDS011;68648;52.114;5.424;2023-05-14T11:23:45;10.85;;;4.55;;
79220;SDS011;68648;52.114;5.424;2023-05-14T11:26:12;9.00;;;4.40;;
79220;SDS011;68648;52.114;5.424;2023-05-14T11:28:38;15.25;;;5.05;;
79220;SDS011;68648;52.114;5.424;2023-05-14T11:31:05;9.57;;;3.90;;
79220;SDS011;68648;52.114;5.424;2023-05-14T11:33:32;11.30;;;5.05;;
79220;SDS011;68648;52.114;5.424;2023-05-14T11:35:58;9.70;;;5.07;;
79220;SDS011;68648;52.114;5.424;2023-05-14T11:38:25;10.05;;;4.30;;
79220;SDS011;68648;52.114;5.424;2023-05-14T11:40:55;12.20;;;4.10;;
79220;SDS011;68648;52.114;5.424;2023-05-14T11:43:24;11.98;;;4.63;;
79220;SDS011;68648;52.114;5.424;2023-05-14T11:45:54;7.82;;;3.75;;
79220;SDS011;68648;52.114;5.424;2023-05-14T11:48:22;8.80;;;4.05;;
79220;SDS011;68648;52.114;5.424;2023-05-14T11:50:51;11.07;;;4.05;;
79220;SDS011;68648;52.114;5.424;2023-05-14T11:53:25;8.02;;;4.22;;
79220;SDS011;68648;52.114;5.424;2023-05-14T11:55:53;11.75;;;4.35;;
79220;SDS011;68648;52.114;5.424;2023-05-14T11:58:20;12.18;;;4.30;;
79220;SDS011;68648;52.114;5.424;2023-05-14T12:00:50;12.40;;;4.72;;
79220;SDS011;68648;52.114;5.424;2023-05-14T12:03:18;11.95;;;3.75;;
79220;SDS011;68648;52.114;5.424;2023-05-14T12:05:55;9.77;;;4.40;;
79220;SDS011;68648;52.114;5.424;2023-05-14T12:08:29;9.98;;;4.43;;
79220;SDS011;68648;52.114;5.424;2023-05-14T12:10:57;9.85;;;4.25;;
79220;SDS011;68648;52.114;5.424;2023-05-14T12:13:26;9.48;;;4.05;;
79220;SDS011;68648;52.114;5.424;2023-05-14T12:15:57;10.80;;;3.78;;
79220;SDS011;68648;52.114;5.424;2023-05-14T12:18:29;11.10;;;4.28;;
79220;SDS011;68648;52.114;5.424;2023-05-14T12:23:30;9.43;;;3.83;;
79220;SDS011;68648;52.114;5.424;2023-05-14T12:26:15;8.13;;;4.93;;
79220;SDS011;68648;52.114;5.424;2023-05-14T12:28:43;11.98;;;5.82;;
79220;SDS011;68648;52.114;5.424;2023-05-14T12:31:14;8.27;;;4.25;;
79220;SDS011;68648;52.114;5.424;2023-05-14T12:33:40;9.95;;;3.88;;
79220;SDS011;68648;52.114;5.424;2023-05-14T12:36:07;9.43;;;4.95;;
79220;SDS011;68648;52.114;5.424;2023-05-14T12:38:36;10.20;;;4.20;;
79220;SDS011;68648;52.114;5.424;2023-05-14T12:41:06;10.35;;;4.50;;
79220;SDS011;68648;52.114;5.424;2023-05-14T12:43:32;9.63;;;4.53;;
79220;SDS011;68648;52.114;5.424;2023-05-14T12:45:59;10.88;;;4.30;;
79220;SDS011;68648;52.114;5.424;2023-05-14T12:48:25;12.85;;;4.68;;
79220;SDS011;68648;52.114;5.424;2023-05-14T12:50:52;10.27;;;3.78;;
79220;SDS011;68648;52.114;5.424;2023-05-14T12:53:18;10.02;;;3.97;;
79220;SDS011;68648;52.114;5.424;2023-05-14T12:55:45;10.15;;;4.65;;
79220;SDS011;68648;52.114;5.424;2023-05-14T12:58:11;8.90;;;4.32;;
79220;SDS011;68648;52.114;5.424;2023-05-14T13:00:38;6.80;;;3.53;;
79220;SDS011;68648;52.114;5.424;2023-05-14T13:03:04;8.50;;;4.43;;
79220;SDS011;68648;52.114;5.424;2023-05-14T13:05:31;10.07;;;4.22;;
79220;SDS011;68648;52.114;5.424;2023-05-14T13:07:59;8.30;;;4.55;;
79220;SDS011;68648;52.114;5.424;2023-05-14T13:10:27;10.80;;;4.10;;
79220;SDS011;68648;52.114;5.424;2023-05-14T13:12:53;10.50;;;4.50;;
79220;SDS011;68648;52.114;5.424;2023-05-14T13:15:21;12.43;;;4.30;;
79220;SDS011;68648;52.114;5.424;2023-05-14T13:17:48;9.48;;;5.30;;
79220;SDS011;68648;52.114;5.424;2023-05-14T13:20:15;9.95;;;5.00;;
79220;SDS011;68648;52.114;5.424;2023-05-14T13:22:43;8.55;;;4.57;;
79220;SDS011;68648;52.114;5.424;2023-05-14T13:25:10;9.77;;;3.95;;
79220;SDS011;68648;52.114;5.424;2023-05-14T13:27:36;10.20;;;4.78;;
79220;SDS011;68648;52.114;5.424;2023-05-14T13:30:03;7.90;;;3.67;;
79220;SDS011;68648;52.114;5.424;2023-05-14T13:32:30;9.70;;;3.97;;
79220;SDS011;68648;52.114;5.424;2023-05-14T13:34:56;9.07;;;5.00;;
79220;SDS011;68648;52.114;5.424;2023-05-14T13:37:23;8.55;;;4.80;;
79220;SDS011;68648;52.114;5.424;2023-05-14T13:39:50;10.48;;;4.90;;
79220;SDS011;68648;52.114;5.424;2023-05-14T13:42:17;8.88;;;4.82;;
79220;SDS011;68648;52.114;5.424;2023-05-14T13:44:43;8.90;;;3.75;;
79220;SDS011;68648;52.114;5.424;2023-05-14T13:47:11;9.65;;;4.35;;
79220;SDS011;68648;52.114;5.424;2023-05-14T13:49:38;12.65;;;4.55;;
79220;SDS011;68648;52.114;5.424;2023-05-14T13:52:05;11.32;;;4.03;;
79220;SDS011;68648;52.114;5.424;2023-05-14T13:54:32;10.38;;;4.38;;
79220;SDS011;68648;52.114;5.424;2023-05-14T13:57:00;8.57;;;3.67;;
79220;SDS011;68648;52.114;5.424;2023-05-14T13:59:27;11.30;;;3.70;;
79220;SDS011;68648;52.114;5.424;2023-05-14T14:01:54;10.85;;;4.30;;
79220;SDS011;68648;52.114;5.424;2023-05-14T14:04:20;9.30;;;4.45;;
79220;SDS011;68648;52.114;5.424;2023-05-14T14:06:47;7.53;;;3.38;;
79220;SDS011;68648;52.114;5.424;2023-05-14T14:09:14;8.18;;;4.03;;
79220;SDS011;68648;52.114;5.424;2023-05-14T14:11:41;9.07;;;4.32;;
79220;SDS011;68648;52.114;5.424;2023-05-14T14:14:09;11.60;;;3.85;;
79220;SDS011;68648;52.114;5.424;2023-05-14T14:16:35;12.95;;;4.20;;
79220;SDS011;68648;52.114;5.424;2023-05-14T14:19:02;10.65;;;3.90;;
79220;SDS011;68648;52.114;5.424;2023-05-14T14:21:29;8.73;;;3.90;;
79220;SDS011;68648;52.114;5.424;2023-05-14T14:23:56;10.90;;;3.67;;
79220;SDS011;68648;52.114;5.424;2023-05-14T14:26:23;6.90;;;3.88;;
79220;SDS011;68648;52.114;5.424;2023-05-14T14:28:49;9.50;;;3.78;;
79220;SDS011;68648;52.114;5.424;2023-05-14T14:31:16;12.77;;;4.22;;
79220;SDS011;68648;52.114;5.424;2023-05-14T14:33:43;7.72;;;3.25;;
79220;SDS011;68648;52.114;5.424;2023-05-14T14:36:09;8.45;;;3.33;;
79220;SDS011;68648;52.114;5.424;2023-05-14T14:38:36;7.97;;;3.60;;
79220;SDS011;68648;52.114;5.424;2023-05-14T14:41:04;8.95;;;4.00;;
79220;SDS011;68648;52.114;5.424;2023-05-14T14:43:36;7.25;;;2.97;;
79220;SDS011;68648;52.114;5.424;2023-05-14T14:46:03;10.23;;;3.22;;
79220;SDS011;68648;52.114;5.424;2023-05-14T14:48:33;7.90;;;2.85;;